sensor_id;sensor_type;location;lat;lon;timestamp;temperature;humidity
42037;DHT22;30340;52.004;5.908;2022-10-31T00:01:14;15.60;81.70
42037;DHT22;30340;52.004;5.908;2022-10-31T00:03:40;15.50;81.70
42037;DHT22;30340;52.004;5.908;2022-10-31T00:06:05;15.50;81.70
42037;DHT22;30340;52.004;5.908;2022-10-31T00:08:31;15.50;81.80
42037;DHT22;30340;52.004;5.908;2022-10-31T00:10:56;15.50;81.90
42037;DHT22;30340;52.004;5.908;2022-10-31T00:13:22;15.40;81.90
42037;DHT22;30340;52.004;5.908;2022-10-31T00:15:47;15.40;82.00
42037;DHT22;30340;52.004;5.908;2022-10-31T00:18:13;15.40;82.00
42037;DHT22;30340;52.004;5.908;2022-10-31T00:20:39;15.40;82.00
42037;DHT22;30340;52.004;5.908;2022-10-31T00:23:05;15.40;81.90
42037;DHT22;30340;52.004;5.908;2022-10-31T00:25:36;15.40;81.90
42037;DHT22;30340;52.004;5.908;2022-10-31T00:28:03;15.40;82.10
42037;DHT22;30340;52.004;5.908;2022-10-31T00:30:28;15.40;82.20
42037;DHT22;30340;52.004;5.908;2022-10-31T00:32:54;15.30;82.10
42037;DHT22;30340;52.004;5.908;2022-10-31T00:35:19;15.30;82.20
42037;DHT22;30340;52.004;5.908;2022-10-31T00:37:45;15.30;82.20
42037;DHT22;30340;52.004;5.908;2022-10-31T00:40:11;15.30;82.30
42037;DHT22;30340;52.004;5.908;2022-10-31T00:42:36;15.20;82.20
42037;DHT22;30340;52.004;5.908;2022-10-31T00:45:02;15.20;82.40
42037;DHT22;30340;52.004;5.908;2022-10-31T00:47:28;15.20;82.40
42037;DHT22;30340;52.004;5.908;2022-10-31T00:49:53;15.20;82.40
42037;DHT22;30340;52.004;5.908;2022-10-31T00:52:19;15.20;82.40
42037;DHT22;30340;52.004;5.908;2022-10-31T00:54:44;15.20;82.40
42037;DHT22;30340;52.004;5.908;2022-10-31T00:57:10;15.20;82.40
42037;DHT22;30340;52.004;5.908;2022-10-31T00:59:35;15.20;82.40
42037;DHT22;30340;52.004;5.908;2022-10-31T01:02:01;15.20;82.40
42037;DHT22;30340;52.004;5.908;2022-10-31T01:04:26;15.20;82.40
42037;DHT22;30340;52.004;5.908;2022-10-31T01:06:52;15.20;82.40
42037;DHT22;30340;52.004;5.908;2022-10-31T01:09:17;15.20;82.20
42037;DHT22;30340;52.004;5.908;2022-10-31T01:11:43;15.20;82.30
42037;DHT22;30340;52.004;5.908;2022-10-31T01:14:09;15.20;82.30
42037;DHT22;30340;52.004;5.908;2022-10-31T01:16:35;15.20;82.30
42037;DHT22;30340;52.004;5.908;2022-10-31T01:19:00;15.10;82.30
42037;DHT22;30340;52.004;5.908;2022-10-31T01:21:28;15.10;82.30
42037;DHT22;30340;52.004;5.908;2022-10-31T01:23:54;15.10;82.20
42037;DHT22;30340;52.004;5.908;2022-10-31T01:26:26;15.10;82.30
42037;DHT22;30340;52.004;5.908;2022-10-31T01:28:57;15.10;82.30
42037;DHT22;30340;52.004;5.908;2022-10-31T01:31:25;15.10;82.40
42037;DHT22;30340;52.004;5.908;2022-10-31T01:33:51;15.00;82.40
42037;DHT22;30340;52.004;5.908;2022-10-31T01:36:22;15.00;82.40
42037;DHT22;30340;52.004;5.908;2022-10-31T01:38:48;15.00;82.40
42037;DHT22;30340;52.004;5.908;2022-10-31T01:41:17;15.00;82.40
42037;DHT22;30340;52.004;5.908;2022-10-31T01:46:32;15.00;82.40
42037;DHT22;30340;52.004;5.908;2022-10-31T01:49:01;15.00;82.30
42037;DHT22;30340;52.004;5.908;2022-10-31T01:51:33;15.00;82.20
42037;DHT22;30340;52.004;5.908;2022-10-31T01:54:04;14.90;82.30
42037;DHT22;30340;52.004;5.908;2022-10-31T01:56:31;14.90;82.40
42037;DHT22;30340;52.004;5.908;2022-10-31T01:59:00;14.90;83.00
42037;DHT22;30340;52.004;5.908;2022-10-31T02:01:27;14.90;82.10
42037;DHT22;30340;52.004;5.908;2022-10-31T02:03:55;14.90;82.00
42037;DHT22;30340;52.004;5.908;2022-10-31T02:06:43;14.90;82.10
42037;DHT22;30340;52.004;5.908;2022-10-31T02:09:11;14.90;82.00
42037;DHT22;30340;52.004;5.908;2022-10-31T02:11:38;14.90;81.90
42037;DHT22;30340;52.004;5.908;2022-10-31T02:14:04;14.80;81.90
42037;DHT22;30340;52.004;5.908;2022-10-31T02:16:29;14.80;81.90
42037;DHT22;30340;52.004;5.908;2022-10-31T02:18:55;14.80;82.00
42037;DHT22;30340;52.004;5.908;2022-10-31T02:24:32;14.70;81.90
42037;DHT22;30340;52.004;5.908;2022-10-31T02:30:16;14.70;81.50
42037;DHT22;30340;52.004;5.908;2022-10-31T02:33:09;14.60;81.70
42037;DHT22;30340;52.004;5.908;2022-10-31T02:36:11;14.50;81.80
42037;DHT22;30340;52.004;5.908;2022-10-31T02:46:14;14.40;81.80
42037;DHT22;30340;52.004;5.908;2022-10-31T02:48:43;14.40;81.80
42037;DHT22;30340;52.004;5.908;2022-10-31T02:51:11;14.40;81.90
42037;DHT22;30340;52.004;5.908;2022-10-31T02:53:37;14.40;81.80
42037;DHT22;30340;52.004;5.908;2022-10-31T02:56:17;14.40;81.70
42037;DHT22;30340;52.004;5.908;2022-10-31T02:58:50;14.40;81.60
42037;DHT22;30340;52.004;5.908;2022-10-31T03:01:24;14.30;81.60
42037;DHT22;30340;52.004;5.908;2022-10-31T03:12:08;14.30;81.60
42037;DHT22;30340;52.004;5.908;2022-10-31T03:14:43;14.30;81.90
42037;DHT22;30340;52.004;5.908;2022-10-31T03:17:22;14.20;82.00
42037;DHT22;30340;52.004;5.908;2022-10-31T03:19:53;14.20;82.20
42037;DHT22;30340;52.004;5.908;2022-10-31T03:22:25;14.20;82.20
42037;DHT22;30340;52.004;5.908;2022-10-31T03:24:52;14.20;82.20
42037;DHT22;30340;52.004;5.908;2022-10-31T03:27:25;14.20;82.20
42037;DHT22;30340;52.004;5.908;2022-10-31T03:29:55;14.10;82.20
42037;DHT22;30340;52.004;5.908;2022-10-31T03:32:26;14.10;82.30
42037;DHT22;30340;52.004;5.908;2022-10-31T03:34:57;14.00;82.40
42037;DHT22;30340;52.004;5.908;2022-10-31T03:37:26;13.90;82.50
42037;DHT22;30340;52.004;5.908;2022-10-31T03:39:53;13.90;82.50
42037;DHT22;30340;52.004;5.908;2022-10-31T03:42:31;13.90;82.40
42037;DHT22;30340;52.004;5.908;2022-10-31T03:45:11;13.90;82.20
42037;DHT22;30340;52.004;5.908;2022-10-31T03:47:38;13.80;82.10
42037;DHT22;30340;52.004;5.908;2022-10-31T03:50:06;13.80;82.10
42037;DHT22;30340;52.004;5.908;2022-10-31T03:52:53;13.80;82.20
42037;DHT22;30340;52.004;5.908;2022-10-31T03:55:31;13.80;82.10
42037;DHT22;30340;52.004;5.908;2022-10-31T03:58:03;13.80;82.10
42037;DHT22;30340;52.004;5.908;2022-10-31T04:00:31;13.80;82.10
42037;DHT22;30340;52.004;5.908;2022-10-31T04:03:03;13.80;82.20
42037;DHT22;30340;52.004;5.908;2022-10-31T04:05:31;13.70;82.30
42037;DHT22;30340;52.004;5.908;2022-10-31T04:07:58;13.70;82.50
42037;DHT22;30340;52.004;5.908;2022-10-31T04:10:26;13.70;82.60
42037;DHT22;30340;52.004;5.908;2022-10-31T04:12:58;13.70;82.80
42037;DHT22;30340;52.004;5.908;2022-10-31T04:15:26;13.70;82.90
42037;DHT22;30340;52.004;5.908;2022-10-31T04:17:54;13.60;82.90
42037;DHT22;30340;52.004;5.908;2022-10-31T04:20:30;13.60;83.00
42037;DHT22;30340;52.004;5.908;2022-10-31T04:22:55;13.70;83.10
42037;DHT22;30340;52.004;5.908;2022-10-31T04:25:21;13.60;83.10
42037;DHT22;30340;52.004;5.908;2022-10-31T04:27:46;13.60;83.10
42037;DHT22;30340;52.004;5.908;2022-10-31T04:30:12;13.70;83.10
42037;DHT22;30340;52.004;5.908;2022-10-31T04:32:37;13.70;83.00
42037;DHT22;30340;52.004;5.908;2022-10-31T04:35:03;13.70;82.90
42037;DHT22;30340;52.004;5.908;2022-10-31T04:37:29;13.70;83.00
42037;DHT22;30340;52.004;5.908;2022-10-31T04:39:54;13.70;83.10
42037;DHT22;30340;52.004;5.908;2022-10-31T04:42:20;13.60;83.10
42037;DHT22;30340;52.004;5.908;2022-10-31T04:44:45;13.60;83.00
42037;DHT22;30340;52.004;5.908;2022-10-31T04:47:11;13.50;83.00
42037;DHT22;30340;52.004;5.908;2022-10-31T04:49:36;13.50;83.20
42037;DHT22;30340;52.004;5.908;2022-10-31T04:52:02;13.50;83.10
42037;DHT22;30340;52.004;5.908;2022-10-31T04:54:27;13.40;83.20
42037;DHT22;30340;52.004;5.908;2022-10-31T04:56:53;13.40;83.20
42037;DHT22;30340;52.004;5.908;2022-10-31T04:59:18;13.40;83.20
42037;DHT22;30340;52.004;5.908;2022-10-31T05:01:44;13.50;83.00
42037;DHT22;30340;52.004;5.908;2022-10-31T05:04:09;13.50;83.00
42037;DHT22;30340;52.004;5.908;2022-10-31T05:06:35;13.50;83.10
42037;DHT22;30340;52.004;5.908;2022-10-31T05:09:00;13.50;83.10
42037;DHT22;30340;52.004;5.908;2022-10-31T05:11:26;13.50;83.10
42037;DHT22;30340;52.004;5.908;2022-10-31T05:13:52;13.50;83.00
42037;DHT22;30340;52.004;5.908;2022-10-31T05:16:17;13.50;83.10
42037;DHT22;30340;52.004;5.908;2022-10-31T05:18:43;13.60;83.10
42037;DHT22;30340;52.004;5.908;2022-10-31T05:21:08;13.60;83.10
42037;DHT22;30340;52.004;5.908;2022-10-31T05:23:34;13.60;83.00
42037;DHT22;30340;52.004;5.908;2022-10-31T05:25:59;13.60;83.00
42037;DHT22;30340;52.004;5.908;2022-10-31T05:28:25;13.60;83.10
42037;DHT22;30340;52.004;5.908;2022-10-31T05:30:50;13.60;83.20
42037;DHT22;30340;52.004;5.908;2022-10-31T05:33:16;13.60;83.40
42037;DHT22;30340;52.004;5.908;2022-10-31T05:35:41;13.60;83.60
42037;DHT22;30340;52.004;5.908;2022-10-31T05:38:07;13.60;83.70
42037;DHT22;30340;52.004;5.908;2022-10-31T05:40:32;13.60;83.70
42037;DHT22;30340;52.004;5.908;2022-10-31T05:42:58;13.70;83.70
42037;DHT22;30340;52.004;5.908;2022-10-31T05:45:24;13.70;83.60
42037;DHT22;30340;52.004;5.908;2022-10-31T05:48:00;13.80;83.60
42037;DHT22;30340;52.004;5.908;2022-10-31T05:50:27;13.70;83.60
42037;DHT22;30340;52.004;5.908;2022-10-31T05:53:01;13.70;83.60
42037;DHT22;30340;52.004;5.908;2022-10-31T05:55:28;13.80;83.60
42037;DHT22;30340;52.004;5.908;2022-10-31T05:57:55;13.70;83.60
42037;DHT22;30340;52.004;5.908;2022-10-31T06:00:21;13.70;83.70
42037;DHT22;30340;52.004;5.908;2022-10-31T06:02:47;13.70;83.70
42037;DHT22;30340;52.004;5.908;2022-10-31T06:05:12;13.80;83.70
42037;DHT22;30340;52.004;5.908;2022-10-31T06:07:38;13.80;83.70
42037;DHT22;30340;52.004;5.908;2022-10-31T06:10:06;13.80;83.60
42037;DHT22;30340;52.004;5.908;2022-10-31T06:12:31;13.80;83.60
42037;DHT22;30340;52.004;5.908;2022-10-31T06:15:04;13.90;83.60
42037;DHT22;30340;52.004;5.908;2022-10-31T06:17:29;13.90;83.50
42037;DHT22;30340;52.004;5.908;2022-10-31T06:19:55;13.90;83.60
42037;DHT22;30340;52.004;5.908;2022-10-31T06:22:20;13.80;83.70
42037;DHT22;30340;52.004;5.908;2022-10-31T06:24:46;13.90;83.80
42037;DHT22;30340;52.004;5.908;2022-10-31T06:27:12;13.80;83.80
42037;DHT22;30340;52.004;5.908;2022-10-31T06:29:37;13.80;83.80
42037;DHT22;30340;52.004;5.908;2022-10-31T06:32:03;13.80;83.80
42037;DHT22;30340;52.004;5.908;2022-10-31T06:34:28;13.80;83.80
42037;DHT22;30340;52.004;5.908;2022-10-31T06:36:54;13.80;83.80
42037;DHT22;30340;52.004;5.908;2022-10-31T06:39:19;13.80;83.80
42037;DHT22;30340;52.004;5.908;2022-10-31T06:41:47;13.70;83.80
42037;DHT22;30340;52.004;5.908;2022-10-31T06:44:13;13.70;83.90
42037;DHT22;30340;52.004;5.908;2022-10-31T06:46:39;13.70;84.00
42037;DHT22;30340;52.004;5.908;2022-10-31T06:49:04;13.80;84.10
42037;DHT22;30340;52.004;5.908;2022-10-31T06:51:30;13.80;84.00
42037;DHT22;30340;52.004;5.908;2022-10-31T06:53:55;13.70;83.90
42037;DHT22;30340;52.004;5.908;2022-10-31T06:56:21;13.70;84.00
42037;DHT22;30340;52.004;5.908;2022-10-31T06:58:47;13.70;84.10
42037;DHT22;30340;52.004;5.908;2022-10-31T07:01:12;13.70;84.20
42037;DHT22;30340;52.004;5.908;2022-10-31T07:03:38;13.70;84.10
42037;DHT22;30340;52.004;5.908;2022-10-31T07:06:03;13.80;84.10
42037;DHT22;30340;52.004;5.908;2022-10-31T07:08:29;13.80;83.90
42037;DHT22;30340;52.004;5.908;2022-10-31T07:10:56;13.80;83.80
42037;DHT22;30340;52.004;5.908;2022-10-31T07:13:23;13.80;83.80
42037;DHT22;30340;52.004;5.908;2022-10-31T07:15:54;13.90;83.70
42037;DHT22;30340;52.004;5.908;2022-10-31T07:18:20;13.90;83.70
42037;DHT22;30340;52.004;5.908;2022-10-31T07:20:46;13.90;83.70
42037;DHT22;30340;52.004;5.908;2022-10-31T07:23:12;13.90;83.80
42037;DHT22;30340;52.004;5.908;2022-10-31T07:25:39;14.00;83.70
42037;DHT22;30340;52.004;5.908;2022-10-31T07:28:05;14.00;83.70
42037;DHT22;30340;52.004;5.908;2022-10-31T07:30:30;14.00;83.70
42037;DHT22;30340;52.004;5.908;2022-10-31T07:32:56;14.00;83.70
42037;DHT22;30340;52.004;5.908;2022-10-31T07:35:27;14.10;83.80
42037;DHT22;30340;52.004;5.908;2022-10-31T07:37:53;14.10;83.70
42037;DHT22;30340;52.004;5.908;2022-10-31T07:40:20;14.20;83.70
42037;DHT22;30340;52.004;5.908;2022-10-31T07:42:48;14.20;83.70
42037;DHT22;30340;52.004;5.908;2022-10-31T07:45:16;14.20;83.80
42037;DHT22;30340;52.004;5.908;2022-10-31T07:47:48;14.20;84.10
42037;DHT22;30340;52.004;5.908;2022-10-31T07:50:20;14.20;84.20
42037;DHT22;30340;52.004;5.908;2022-10-31T07:52:46;14.30;84.30
42037;DHT22;30340;52.004;5.908;2022-10-31T07:55:12;14.30;84.50
42037;DHT22;30340;52.004;5.908;2022-10-31T07:57:37;14.40;84.50
42037;DHT22;30340;52.004;5.908;2022-10-31T08:00:07;14.40;84.70
42037;DHT22;30340;52.004;5.908;2022-10-31T08:02:34;14.40;84.80
42037;DHT22;30340;52.004;5.908;2022-10-31T08:05:00;14.40;85.10
42037;DHT22;30340;52.004;5.908;2022-10-31T08:07:27;14.50;85.40
42037;DHT22;30340;52.004;5.908;2022-10-31T08:09:54;14.50;85.70
42037;DHT22;30340;52.004;5.908;2022-10-31T08:12:19;14.50;85.70
42037;DHT22;30340;52.004;5.908;2022-10-31T08:14:45;14.60;85.80
42037;DHT22;30340;52.004;5.908;2022-10-31T08:17:11;14.70;85.60
42037;DHT22;30340;52.004;5.908;2022-10-31T08:19:36;14.70;85.80
42037;DHT22;30340;52.004;5.908;2022-10-31T08:22:02;14.80;85.80
42037;DHT22;30340;52.004;5.908;2022-10-31T08:24:28;14.80;85.90
42037;DHT22;30340;52.004;5.908;2022-10-31T08:26:53;14.70;85.90
42037;DHT22;30340;52.004;5.908;2022-10-31T08:29:19;14.70;86.00
42037;DHT22;30340;52.004;5.908;2022-10-31T08:31:45;14.70;86.30
42037;DHT22;30340;52.004;5.908;2022-10-31T08:34:10;14.60;86.30
42037;DHT22;30340;52.004;5.908;2022-10-31T08:36:36;14.60;86.30
42037;DHT22;30340;52.004;5.908;2022-10-31T08:39:01;14.60;86.10
42037;DHT22;30340;52.004;5.908;2022-10-31T08:41:27;14.70;86.10
42037;DHT22;30340;52.004;5.908;2022-10-31T08:43:52;14.70;86.00
42037;DHT22;30340;52.004;5.908;2022-10-31T08:46:18;14.70;86.00
42037;DHT22;30340;52.004;5.908;2022-10-31T08:48:44;14.80;86.10
42037;DHT22;30340;52.004;5.908;2022-10-31T08:51:10;14.80;85.90
42037;DHT22;30340;52.004;5.908;2022-10-31T08:53:36;15.00;85.70
42037;DHT22;30340;52.004;5.908;2022-10-31T08:56:04;15.10;85.60
42037;DHT22;30340;52.004;5.908;2022-10-31T08:58:30;15.20;85.30
42037;DHT22;30340;52.004;5.908;2022-10-31T09:00:55;15.20;85.00
42037;DHT22;30340;52.004;5.908;2022-10-31T09:03:23;15.30;84.90
42037;DHT22;30340;52.004;5.908;2022-10-31T09:05:50;15.40;84.70
42037;DHT22;30340;52.004;5.908;2022-10-31T09:08:16;15.40;84.60
42037;DHT22;30340;52.004;5.908;2022-10-31T09:10:42;15.40;84.60
42037;DHT22;30340;52.004;5.908;2022-10-31T09:13:13;15.40;84.40
42037;DHT22;30340;52.004;5.908;2022-10-31T09:15:41;15.50;85.00
42037;DHT22;30340;52.004;5.908;2022-10-31T09:18:09;15.50;84.30
42037;DHT22;30340;52.004;5.908;2022-10-31T09:20:36;15.50;83.90
42037;DHT22;30340;52.004;5.908;2022-10-31T09:23:08;15.60;84.00
42037;DHT22;30340;52.004;5.908;2022-10-31T09:25:34;15.70;83.70
42037;DHT22;30340;52.004;5.908;2022-10-31T09:28:03;15.80;86.40
42037;DHT22;30340;52.004;5.908;2022-10-31T09:30:30;15.90;89.70
42037;DHT22;30340;52.004;5.908;2022-10-31T09:33:01;15.90;90.20
42037;DHT22;30340;52.004;5.908;2022-10-31T09:35:27;15.80;88.50
42037;DHT22;30340;52.004;5.908;2022-10-31T09:38:00;15.80;88.10
42037;DHT22;30340;52.004;5.908;2022-10-31T09:40:37;15.80;88.20
42037;DHT22;30340;52.004;5.908;2022-10-31T09:43:31;15.80;87.40
42037;DHT22;30340;52.004;5.908;2022-10-31T09:46:26;15.70;86.80
42037;DHT22;30340;52.004;5.908;2022-10-31T09:51:28;15.90;86.60
42037;DHT22;30340;52.004;5.908;2022-10-31T09:56:29;16.00;86.20
42037;DHT22;30340;52.004;5.908;2022-10-31T09:59:00;16.10;86.20
42037;DHT22;30340;52.004;5.908;2022-10-31T10:01:34;16.20;86.70
42037;DHT22;30340;52.004;5.908;2022-10-31T10:06:55;16.20;85.70
42037;DHT22;30340;52.004;5.908;2022-10-31T10:09:24;16.20;85.60
42037;DHT22;30340;52.004;5.908;2022-10-31T10:11:57;16.20;85.70
42037;DHT22;30340;52.004;5.908;2022-10-31T10:25:23;16.30;85.50
42037;DHT22;30340;52.004;5.908;2022-10-31T10:30:34;16.30;85.90
42037;DHT22;30340;52.004;5.908;2022-10-31T10:33:12;16.30;85.80
42037;DHT22;30340;52.004;5.908;2022-10-31T10:35:45;16.20;86.00
42037;DHT22;30340;52.004;5.908;2022-10-31T10:40:41;16.40;86.20
42037;DHT22;30340;52.004;5.908;2022-10-31T10:47:09;16.60;85.80
42037;DHT22;30340;52.004;5.908;2022-10-31T10:49:32;16.70;85.60
42037;DHT22;30340;52.004;5.908;2022-10-31T10:51:59;16.60;85.30
42037;DHT22;30340;52.004;5.908;2022-10-31T10:54:39;16.60;85.30
42037;DHT22;30340;52.004;5.908;2022-10-31T10:59:46;16.60;85.70
42037;DHT22;30340;52.004;5.908;2022-10-31T11:02:26;16.70;85.50
42037;DHT22;30340;52.004;5.908;2022-10-31T11:04:56;16.90;85.60
42037;DHT22;30340;52.004;5.908;2022-10-31T11:07:22;17.00;85.10
42037;DHT22;30340;52.004;5.908;2022-10-31T11:09:48;17.00;84.90
42037;DHT22;30340;52.004;5.908;2022-10-31T11:12:32;17.10;84.40
42037;DHT22;30340;52.004;5.908;2022-10-31T11:15:05;17.20;84.20
42037;DHT22;30340;52.004;5.908;2022-10-31T11:17:35;17.30;83.80
42037;DHT22;30340;52.004;5.908;2022-10-31T11:22:43;17.30;83.40
42037;DHT22;30340;52.004;5.908;2022-10-31T11:25:23;17.40;83.20
42037;DHT22;30340;52.004;5.908;2022-10-31T11:28:03;17.40;83.00
42037;DHT22;30340;52.004;5.908;2022-10-31T11:30:30;17.40;82.40
42037;DHT22;30340;52.004;5.908;2022-10-31T11:33:00;17.40;82.00
42037;DHT22;30340;52.004;5.908;2022-10-31T11:35:26;17.30;81.90
42037;DHT22;30340;52.004;5.908;2022-10-31T11:37:56;17.30;82.20
42037;DHT22;30340;52.004;5.908;2022-10-31T11:40:25;17.30;82.10
42037;DHT22;30340;52.004;5.908;2022-10-31T11:42:53;17.40;82.20
42037;DHT22;30340;52.004;5.908;2022-10-31T11:47:50;17.30;81.60
42037;DHT22;30340;52.004;5.908;2022-10-31T11:50:29;17.40;81.70
42037;DHT22;30340;52.004;5.908;2022-10-31T11:52:56;17.40;81.60
42037;DHT22;30340;52.004;5.908;2022-10-31T11:55:34;17.30;81.30
42037;DHT22;30340;52.004;5.908;2022-10-31T11:58:00;17.30;81.80
42037;DHT22;30340;52.004;5.908;2022-10-31T12:00:28;17.30;81.50
42037;DHT22;30340;52.004;5.908;2022-10-31T12:08:58;17.30;82.00
42037;DHT22;30340;52.004;5.908;2022-10-31T12:11:36;17.40;82.00
42037;DHT22;30340;52.004;5.908;2022-10-31T12:30:17;17.90;81.40
42037;DHT22;30340;52.004;5.908;2022-10-31T12:33:15;17.90;80.70
42037;DHT22;30340;52.004;5.908;2022-10-31T12:46:36;17.80;81.30
42037;DHT22;30340;52.004;5.908;2022-10-31T12:58:01;17.80;81.70
42037;DHT22;30340;52.004;5.908;2022-10-31T13:00:28;17.90;81.60
42037;DHT22;30340;52.004;5.908;2022-10-31T13:03:09;17.90;81.20
42037;DHT22;30340;52.004;5.908;2022-10-31T13:05:45;17.90;81.60
42037;DHT22;30340;52.004;5.908;2022-10-31T13:08:22;18.00;81.50
42037;DHT22;30340;52.004;5.908;2022-10-31T13:11:32;18.10;81.80
42037;DHT22;30340;52.004;5.908;2022-10-31T13:14:05;18.10;80.90
42037;DHT22;30340;52.004;5.908;2022-10-31T13:16:42;18.20;80.40
42037;DHT22;30340;52.004;5.908;2022-10-31T13:24:37;18.40;80.30
42037;DHT22;30340;52.004;5.908;2022-10-31T13:27:26;18.50;79.60
42037;DHT22;30340;52.004;5.908;2022-10-31T13:32:52;18.60;79.90
42037;DHT22;30340;52.004;5.908;2022-10-31T13:35:28;18.60;78.80
42037;DHT22;30340;52.004;5.908;2022-10-31T13:38:05;18.50;78.80
42037;DHT22;30340;52.004;5.908;2022-10-31T13:43:12;18.40;78.90
42037;DHT22;30340;52.004;5.908;2022-10-31T13:45:53;18.50;79.00
42037;DHT22;30340;52.004;5.908;2022-10-31T13:51:08;18.40;78.50
42037;DHT22;30340;52.004;5.908;2022-10-31T13:58:36;18.30;78.90
42037;DHT22;30340;52.004;5.908;2022-10-31T14:03:40;18.40;79.10
42037;DHT22;30340;52.004;5.908;2022-10-31T14:06:09;18.40;79.10
42037;DHT22;30340;52.004;5.908;2022-10-31T14:08:41;18.40;79.00
42037;DHT22;30340;52.004;5.908;2022-10-31T14:11:09;18.30;78.70
42037;DHT22;30340;52.004;5.908;2022-10-31T14:13:45;18.30;78.60
42037;DHT22;30340;52.004;5.908;2022-10-31T14:16:24;18.30;79.00
42037;DHT22;30340;52.004;5.908;2022-10-31T14:19:23;18.30;79.00
42037;DHT22;30340;52.004;5.908;2022-10-31T14:21:50;18.20;79.50
42037;DHT22;30340;52.004;5.908;2022-10-31T14:24:36;18.20;78.90
42037;DHT22;30340;52.004;5.908;2022-10-31T14:29:31;18.10;78.70
42037;DHT22;30340;52.004;5.908;2022-10-31T14:48:18;18.20;79.60
42037;DHT22;30340;52.004;5.908;2022-10-31T14:50:50;18.20;79.40
42037;DHT22;30340;52.004;5.908;2022-10-31T14:53:30;18.10;78.90
42037;DHT22;30340;52.004;5.908;2022-10-31T14:55:57;18.00;79.30
42037;DHT22;30340;52.004;5.908;2022-10-31T14:58:44;18.00;79.40
42037;DHT22;30340;52.004;5.908;2022-10-31T15:01:29;17.90;79.60
42037;DHT22;30340;52.004;5.908;2022-10-31T15:04:20;17.90;79.90
42037;DHT22;30340;52.004;5.908;2022-10-31T15:06:47;17.90;79.80
42037;DHT22;30340;52.004;5.908;2022-10-31T15:09:27;17.80;80.00
42037;DHT22;30340;52.004;5.908;2022-10-31T15:11:53;17.80;80.10
42037;DHT22;30340;52.004;5.908;2022-10-31T15:14:30;17.90;80.20
42037;DHT22;30340;52.004;5.908;2022-10-31T15:17:02;17.80;80.00
42037;DHT22;30340;52.004;5.908;2022-10-31T15:19:30;17.70;80.40
42037;DHT22;30340;52.004;5.908;2022-10-31T15:21:57;17.70;80.60
42037;DHT22;30340;52.004;5.908;2022-10-31T15:24:29;17.70;80.50
42037;DHT22;30340;52.004;5.908;2022-10-31T15:26:57;17.60;80.70
42037;DHT22;30340;52.004;5.908;2022-10-31T15:29:25;17.60;80.80
42037;DHT22;30340;52.004;5.908;2022-10-31T15:32:08;17.50;80.90
42037;DHT22;30340;52.004;5.908;2022-10-31T15:34:39;17.50;81.10
42037;DHT22;30340;52.004;5.908;2022-10-31T15:37:13;17.50;81.20
42037;DHT22;30340;52.004;5.908;2022-10-31T15:39:40;17.50;81.20
42037;DHT22;30340;52.004;5.908;2022-10-31T15:42:19;17.50;81.50
42037;DHT22;30340;52.004;5.908;2022-10-31T15:44:49;17.40;81.60
42037;DHT22;30340;52.004;5.908;2022-10-31T15:47:19;17.50;81.70
42037;DHT22;30340;52.004;5.908;2022-10-31T15:49:54;17.50;81.70
42037;DHT22;30340;52.004;5.908;2022-10-31T15:52:42;17.50;81.70
42037;DHT22;30340;52.004;5.908;2022-10-31T15:57:34;17.40;81.70
42037;DHT22;30340;52.004;5.908;2022-10-31T16:00:05;17.40;81.90
42037;DHT22;30340;52.004;5.908;2022-10-31T16:02:30;17.30;81.90
42037;DHT22;30340;52.004;5.908;2022-10-31T16:04:59;17.30;82.10
42037;DHT22;30340;52.004;5.908;2022-10-31T16:07:27;17.20;82.20
42037;DHT22;30340;52.004;5.908;2022-10-31T16:12:23;17.20;82.50
42037;DHT22;30340;52.004;5.908;2022-10-31T16:14:51;17.20;82.60
42037;DHT22;30340;52.004;5.908;2022-10-31T16:17:21;17.20;82.70
42037;DHT22;30340;52.004;5.908;2022-10-31T16:22:31;17.10;82.80
42037;DHT22;30340;52.004;5.908;2022-10-31T16:25:03;17.10;82.90
42037;DHT22;30340;52.004;5.908;2022-10-31T16:27:33;17.10;83.00
42037;DHT22;30340;52.004;5.908;2022-10-31T16:30:00;17.10;83.10
42037;DHT22;30340;52.004;5.908;2022-10-31T16:32:51;17.10;83.30
42037;DHT22;30340;52.004;5.908;2022-10-31T16:37:49;17.10;83.40
42037;DHT22;30340;52.004;5.908;2022-10-31T16:40:15;17.00;83.40
42037;DHT22;30340;52.004;5.908;2022-10-31T16:42:42;17.00;83.50
42037;DHT22;30340;52.004;5.908;2022-10-31T16:45:14;17.10;83.60
42037;DHT22;30340;52.004;5.908;2022-10-31T16:47:40;17.10;83.60
42037;DHT22;30340;52.004;5.908;2022-10-31T16:50:12;17.10;83.70
42037;DHT22;30340;52.004;5.908;2022-10-31T16:52:38;17.00;83.60
42037;DHT22;30340;52.004;5.908;2022-10-31T16:55:04;17.00;83.60
42037;DHT22;30340;52.004;5.908;2022-10-31T16:57:31;17.00;83.70
42037;DHT22;30340;52.004;5.908;2022-10-31T16:59:57;17.00;83.80
42037;DHT22;30340;52.004;5.908;2022-10-31T17:02:23;16.90;83.90
42037;DHT22;30340;52.004;5.908;2022-10-31T17:04:48;16.90;83.90
42037;DHT22;30340;52.004;5.908;2022-10-31T17:07:14;16.90;84.00
42037;DHT22;30340;52.004;5.908;2022-10-31T17:09:39;16.90;84.20
42037;DHT22;30340;52.004;5.908;2022-10-31T17:12:06;16.80;84.20
42037;DHT22;30340;52.004;5.908;2022-10-31T17:14:38;16.80;84.30
42037;DHT22;30340;52.004;5.908;2022-10-31T17:17:04;16.70;84.40
42037;DHT22;30340;52.004;5.908;2022-10-31T17:19:30;16.70;84.60
42037;DHT22;30340;52.004;5.908;2022-10-31T17:21:55;16.60;84.80
42037;DHT22;30340;52.004;5.908;2022-10-31T17:24:21;16.60;84.90
42037;DHT22;30340;52.004;5.908;2022-10-31T17:26:47;16.60;85.60
42037;DHT22;30340;52.004;5.908;2022-10-31T17:29:12;16.60;85.10
42037;DHT22;30340;52.004;5.908;2022-10-31T17:31:38;16.50;85.30
42037;DHT22;30340;52.004;5.908;2022-10-31T17:34:05;16.50;85.50
42037;DHT22;30340;52.004;5.908;2022-10-31T17:36:32;16.50;85.50
42037;DHT22;30340;52.004;5.908;2022-10-31T17:38:58;16.50;85.60
42037;DHT22;30340;52.004;5.908;2022-10-31T17:41:24;16.50;85.50
42037;DHT22;30340;52.004;5.908;2022-10-31T17:43:54;16.50;85.50
42037;DHT22;30340;52.004;5.908;2022-10-31T17:46:20;16.50;85.60
42037;DHT22;30340;52.004;5.908;2022-10-31T17:48:45;16.50;85.60
42037;DHT22;30340;52.004;5.908;2022-10-31T17:51:11;16.50;85.70
42037;DHT22;30340;52.004;5.908;2022-10-31T17:53:36;16.40;85.70
42037;DHT22;30340;52.004;5.908;2022-10-31T17:56:05;16.40;85.70
42037;DHT22;30340;52.004;5.908;2022-10-31T17:58:33;16.40;85.70
42037;DHT22;30340;52.004;5.908;2022-10-31T18:00:59;16.40;85.80
42037;DHT22;30340;52.004;5.908;2022-10-31T18:03:26;16.40;85.70
42037;DHT22;30340;52.004;5.908;2022-10-31T18:05:53;16.40;85.70
42037;DHT22;30340;52.004;5.908;2022-10-31T18:08:19;16.40;85.60
42037;DHT22;30340;52.004;5.908;2022-10-31T18:10:44;16.40;85.50
42037;DHT22;30340;52.004;5.908;2022-10-31T18:13:10;16.40;85.50
42037;DHT22;30340;52.004;5.908;2022-10-31T18:15:38;16.40;85.50